Details for Air Canada Rouge at CYYZ




Go Back


Latest METAR
Local Time

CYYZ 061600Z 17008KT 15SM FEW260 10/M04 A3013 RMK CI1 SLP209
06/04/2020, 13:16:08

Description
Results
Air Canada Rouge Logo
Number of Pilots based at CYYZ
0 Pilots Based here
Number of Air Canada Rouge Flights Departed from CYYZ
1 Flights Departed
Number of Air Canada Rouge Flights Arrived at CYYZ
2 Flights Arrived
Number of Air Canada Rouge Schedules Departing from CYYZ
87 Schedules
Number of Air Canada Rouge Schedules Arriving at CYYZ
92 Schedules
Number of Air Canada Rouge Schedules Departing from CYYZ availible today
48 Schedules Today
Number of Air Canada Rouge Schedules Arriving at CYYZ availible today
48 Schedules Today
Average Landing Rate at CYYZ
-236 fpm
Air Canada Rouge Average Landing Rate at CYYZ
-112 fpm
Total Fuel Purchased at CYYZ by Air Canada Rouge
2,869.88 kgs / 6,326.94 lbs

Pilots Based at CYYZ


Pilot ID
Pilot Name
Pilot Rank
No. of Flights
No. of Flying Hours
There are no pilots assigned to this hub!   Will you be the first?